PWSweather.com
Personal Weather Stations
Station Observations
WAIROAHB
Wairoa, Northern Hawkes Bay -NZ 4108

WairoaNorthern Hawkes Bay -NZ 4108

Lat: -39.04516934, Lon: 177.4263989

Elevation: 156

Station Type: WS3083

http://wairoa.net/weather/index.htm

High Low Average
Temperature 78.4°F25.8°C 61.7°F16.5°C 67.8°F19.9°C
Dew Point 69.1°F20.6°C 61.1°F16.2°C 65.2°F18.4°C
Winds 12.1 mph 19.5 kmh Calm Calm 5.0 mph SSW8.0 kmh SSW
Wind Gusts 21.3 mph34.3 kmh -- 10.0 mph16.1 kmh
Humidity 99% 70% 92%
Pressure 29.77 in1008.1 mb 29.69 in1005.4 mb -
Precipitation 0.17 in4.3 mm - -
Hour Temp Dew Point Humidity Winds Wind Gusts Pressure Precip Precip Rate Daily Precip Total
12:00 AM 66.2°F19.0°C 65.9°F18.8°C 99% 9.2 mph WSW14.8 kmh WSW 15.9 mph25.6 kmh 29.72 in1006.4 mb 0.00 in0.0 mm 0.00 in0.0 mm 0.00 in0.0 mm
12:10 AM 65.3°F18.5°C 65.0°F18.3°C 99% 7.6 mph WSW12.2 kmh WSW 10.7 mph17.2 kmh 29.73 in1006.8 mb 0.00 in0.0 mm 0.00 in0.0 mm 0.00 in0.0 mm
12:20 AM 65.7°F18.7°C 65.4°F18.6°C 99% 9.2 mph W14.8 kmh W 14.5 mph23.3 kmh 29.73 in1006.8 mb 0.00 in0.0 mm 0.00 in0.0 mm 0.00 in0.0 mm
12:30 AM 66.0°F18.9°C 65.8°F18.8°C 99% 5.4 mph N8.7 kmh N 13.0 mph20.9 kmh 29.72 in1006.4 mb 0.00 in0.0 mm 0.00 in0.0 mm 0.00 in0.0 mm
12:40 AM 66.4°F19.1°C 65.5°F18.6°C 97% 4.5 mph NNW7.2 kmh NNW 11.4 mph18.3 kmh 29.72 in1006.4 mb 0.00 in0.0 mm 0.00 in0.0 mm 0.00 in0.0 mm
12:50 AM 66.4°F19.1°C 65.2°F18.4°C 96% 6.9 mph W11.1 kmh W 11.4 mph18.3 kmh 29.72 in1006.4 mb 0.00 in0.0 mm 0.00 in0.0 mm 0.00 in0.0 mm
01:00 AM 66.7°F19.3°C 65.9°F18.8°C 97% 6.0 mph WSW9.7 kmh WSW 10.7 mph17.2 kmh 29.71 in1006.1 mb 0.00 in0.0 mm 0.00 in0.0 mm 0.00 in0.0 mm
01:10 AM 67.1°F19.5°C 66.3°F19.1°C 97% 6.9 mph WSW11.1 kmh WSW 14.5 mph23.3 kmh 29.71 in1006.1 mb 0.00 in0.0 mm 0.00 in0.0 mm 0.00 in0.0 mm
01:20 AM 67.1°F19.5°C 66.0°F18.9°C 96% 8.3 mph NW13.4 kmh NW 14.5 mph23.3 kmh 29.71 in1006.1 mb 0.00 in0.0 mm 0.00 in0.0 mm 0.00 in0.0 mm
01:30 AM 67.1°F19.5°C 66.0°F18.9°C 96% 6.9 mph W11.1 kmh W 12.1 mph19.5 kmh 29.70 in1005.8 mb 0.00 in0.0 mm 0.00 in0.0 mm 0.00 in0.0 mm
01:40 AM 66.9°F19.4°C 65.5°F18.6°C 95% 7.6 mph WNW12.2 kmh WNW 14.5 mph23.3 kmh 29.70 in1005.8 mb 0.00 in0.0 mm 0.00 in0.0 mm 0.00 in0.0 mm
01:50 AM 67.3°F19.6°C 65.8°F18.8°C 95% 5.4 mph NW8.7 kmh NW 12.1 mph19.5 kmh 29.71 in1006.1 mb 0.00 in0.0 mm 0.00 in0.0 mm 0.00 in0.0 mm
02:00 AM 66.4°F19.1°C 65.8°F18.8°C 98% 6.9 mph WSW11.1 kmh WSW 15.2 mph24.5 kmh 29.70 in1005.8 mb 0.00 in0.0 mm 0.00 in0.0 mm 0.00 in0.0 mm
02:10 AM 65.5°F18.6°C 65.2°F18.4°C 99% 9.2 mph WSW14.8 kmh WSW 16.8 mph27.0 kmh 29.70 in1005.8 mb 0.00 in0.0 mm 0.00 in0.0 mm 0.00 in0.0 mm
02:20 AM 64.9°F18.3°C 64.7°F18.2°C 99% 9.2 mph SW14.8 kmh SW 16.8 mph27.0 kmh 29.70 in1005.8 mb 0.09 in2.3 mm 0.54 in13.7 mm 0.09 in2.3 mm
02:30 AM 64.6°F18.1°C 64.3°F17.9°C 99% 6.9 mph SW11.1 kmh SW 15.2 mph24.5 kmh 29.69 in1005.4 mb 0.13 in3.3 mm 0.24 in6.1 mm 0.13 in3.3 mm
02:40 AM 64.6°F18.1°C 64.3°F17.9°C 99% 10.7 mph WSW17.2 kmh WSW 16.8 mph27.0 kmh 29.70 in1005.8 mb 0.13 in3.3 mm 0.00 in0.0 mm 0.13 in3.3 mm
02:50 AM 64.2°F17.9°C 63.4°F17.4°C 97% 8.3 mph SW13.4 kmh SW 15.2 mph24.5 kmh 29.69 in1005.4 mb 0.13 in3.3 mm 0.00 in0.0 mm 0.13 in3.3 mm
03:00 AM 64.4°F18.0°C 64.1°F17.8°C 99% 9.2 mph SW14.8 kmh SW 15.9 mph25.6 kmh 29.69 in1005.4 mb 0.13 in3.3 mm 0.00 in0.0 mm 0.13 in3.3 mm
03:10 AM 64.4°F18.0°C 64.1°F17.8°C 99% 8.3 mph SW13.4 kmh SW 14.5 mph23.3 kmh 29.69 in1005.4 mb 0.13 in3.3 mm 0.00 in0.0 mm 0.13 in3.3 mm
03:20 AM 64.2°F17.9°C 63.4°F17.4°C 97% 8.3 mph SW13.4 kmh SW 21.3 mph34.3 kmh 29.69 in1005.4 mb 0.04 in1.0 mm 0.00 in0.0 mm 0.13 in3.3 mm
03:30 AM 64.2°F17.9°C 63.4°F17.4°C 97% 11.4 mph SW18.3 kmh SW 16.8 mph27.0 kmh 29.69 in1005.4 mb 0.00 in0.0 mm 0.00 in0.0 mm 0.13 in3.3 mm
03:40 AM 64.2°F17.9°C 63.4°F17.4°C 97% 8.3 mph SW13.4 kmh SW 16.8 mph27.0 kmh 29.69 in1005.4 mb 0.00 in0.0 mm 0.00 in0.0 mm 0.13 in3.3 mm
03:50 AM 64.4°F18.0°C 64.1°F17.8°C 99% 9.2 mph WSW14.8 kmh WSW 15.9 mph25.6 kmh 29.69 in1005.4 mb 0.00 in0.0 mm 0.00 in0.0 mm 0.13 in3.3 mm
04:00 AM 64.4°F18.0°C 64.1°F17.8°C 99% 6.9 mph SW11.1 kmh SW 15.9 mph25.6 kmh 29.70 in1005.8 mb 0.00 in0.0 mm 0.00 in0.0 mm 0.13 in3.3 mm
04:10 AM 64.4°F18.0°C 64.1°F17.8°C 99% 6.9 mph SW11.1 kmh SW 15.2 mph24.5 kmh 29.70 in1005.8 mb 0.00 in0.0 mm 0.00 in0.0 mm 0.13 in3.3 mm
04:20 AM 64.4°F18.0°C 64.1°F17.8°C 99% 9.8 mph WSW15.8 kmh WSW 15.9 mph25.6 kmh 29.70 in1005.8 mb 0.00 in0.0 mm 0.00 in0.0 mm 0.13 in3.3 mm
04:30 AM 64.4°F18.0°C 64.1°F17.8°C 99% 9.8 mph W15.8 kmh W 17.4 mph28.0 kmh 29.70 in1005.8 mb 0.00 in0.0 mm 0.00 in0.0 mm 0.13 in3.3 mm
04:40 AM 64.2°F17.9°C 63.4°F17.4°C 97% 7.6 mph WSW12.2 kmh WSW 19.7 mph31.7 kmh 29.70 in1005.8 mb 0.00 in0.0 mm 0.00 in0.0 mm 0.13 in3.3 mm
04:50 AM 64.2°F17.9°C 63.4°F17.4°C 97% 6.9 mph WSW11.1 kmh WSW 15.9 mph25.6 kmh 29.70 in1005.8 mb 0.00 in0.0 mm 0.00 in0.0 mm 0.13 in3.3 mm
05:00 AM 64.2°F17.9°C 63.4°F17.4°C 97% 10.7 mph SW17.2 kmh SW 17.4 mph28.0 kmh 29.71 in1006.1 mb 0.00 in0.0 mm 0.00 in0.0 mm 0.13 in3.3 mm
05:10 AM 64.0°F17.8°C 63.2°F17.3°C 97% 11.4 mph SW18.3 kmh SW 16.8 mph27.0 kmh 29.70 in1005.8 mb 0.00 in0.0 mm 0.00 in0.0 mm 0.13 in3.3 mm
05:20 AM 64.0°F17.8°C 63.2°F17.3°C 97% 7.6 mph WSW12.2 kmh WSW 19.7 mph31.7 kmh 29.71 in1006.1 mb 0.00 in0.0 mm 0.00 in0.0 mm 0.13 in3.3 mm
05:30 AM 64.0°F17.8°C 63.2°F17.3°C 97% 11.4 mph WSW18.3 kmh WSW 19.7 mph31.7 kmh 29.71 in1006.1 mb 0.01 in0.3 mm 0.06 in1.5 mm 0.14 in3.6 mm
05:40 AM 63.9°F17.7°C 63.0°F17.2°C 97% 9.8 mph WSW15.8 kmh WSW 16.8 mph27.0 kmh 29.71 in1006.1 mb 0.01 in0.3 mm 0.00 in0.0 mm 0.14 in3.6 mm
05:50 AM 64.0°F17.8°C 63.2°F17.3°C 97% 8.3 mph WSW13.4 kmh WSW 13.6 mph21.9 kmh 29.72 in1006.4 mb 0.01 in0.3 mm 0.00 in0.0 mm 0.14 in3.6 mm
06:00 AM 64.0°F17.8°C 63.2°F17.3°C 97% 7.6 mph WSW12.2 kmh WSW 14.5 mph23.3 kmh 29.72 in1006.4 mb 0.02 in0.5 mm 0.01 in0.3 mm 0.15 in3.8 mm
06:10 AM 64.2°F17.9°C 63.4°F17.4°C 97% 6.0 mph SW9.7 kmh SW 15.9 mph25.6 kmh 29.72 in1006.4 mb 0.02 in0.5 mm 0.00 in0.0 mm 0.15 in3.8 mm
06:20 AM 64.2°F17.9°C 63.4°F17.4°C 97% 8.3 mph WSW13.4 kmh WSW 13.6 mph21.9 kmh 29.72 in1006.4 mb 0.02 in0.5 mm 0.00 in0.0 mm 0.15 in3.8 mm
06:30 AM 64.4°F18.0°C 64.1°F17.8°C 99% 7.6 mph WSW12.2 kmh WSW 15.2 mph24.5 kmh 29.72 in1006.4 mb 0.02 in0.5 mm 0.00 in0.0 mm 0.17 in4.3 mm
06:40 AM 64.2°F17.9°C 63.4°F17.4°C 97% 4.5 mph WSW7.2 kmh WSW 15.9 mph25.6 kmh 29.73 in1006.8 mb 0.02 in0.5 mm 0.00 in0.0 mm 0.17 in4.3 mm
06:50 AM 64.4°F18.0°C 64.1°F17.8°C 99% 9.8 mph SW15.8 kmh SW 16.8 mph27.0 kmh 29.73 in1006.8 mb 0.02 in0.5 mm 0.00 in0.0 mm 0.17 in4.3 mm
07:00 AM 64.4°F18.0°C 64.1°F17.8°C 99% 9.2 mph WSW14.8 kmh WSW 14.5 mph23.3 kmh 29.73 in1006.8 mb 0.01 in0.3 mm 0.00 in0.0 mm 0.17 in4.3 mm
07:10 AM 64.6°F18.1°C 64.3°F17.9°C 99% 7.6 mph SW12.2 kmh SW 14.5 mph23.3 kmh 29.72 in1006.4 mb 0.01 in0.3 mm 0.00 in0.0 mm 0.17 in4.3 mm
07:20 AM 64.9°F18.3°C 64.7°F18.2°C 99% 6.0 mph WSW9.7 kmh WSW 15.9 mph25.6 kmh 29.73 in1006.8 mb 0.01 in0.3 mm 0.00 in0.0 mm 0.17 in4.3 mm
07:30 AM 64.9°F18.3°C 64.7°F18.2°C 99% 6.9 mph W11.1 kmh W 13.6 mph21.9 kmh 29.73 in1006.8 mb 0.00 in0.0 mm 0.00 in0.0 mm 0.17 in4.3 mm
07:40 AM 65.3°F18.5°C 65.0°F18.3°C 99% 5.4 mph WSW8.7 kmh WSW 14.5 mph23.3 kmh 29.73 in1006.8 mb 0.00 in0.0 mm 0.00 in0.0 mm 0.17 in4.3 mm
07:50 AM 65.8°F18.8°C 65.6°F18.7°C 99% 9.8 mph SW15.8 kmh SW 14.5 mph23.3 kmh 29.73 in1006.8 mb 0.00 in0.0 mm 0.00 in0.0 mm 0.17 in4.3 mm
08:00 AM 65.8°F18.8°C 65.6°F18.7°C 99% 8.3 mph SW13.4 kmh SW 18.3 mph29.5 kmh 29.74 in1007.1 mb 0.00 in0.0 mm 0.00 in0.0 mm 0.17 in4.3 mm
08:10 AM 65.8°F18.8°C 65.3°F18.5°C 98% 7.6 mph WSW12.2 kmh WSW 16.8 mph27.0 kmh 29.74 in1007.1 mb 0.00 in0.0 mm 0.00 in0.0 mm 0.17 in4.3 mm
08:20 AM 65.7°F18.7°C 65.1°F18.4°C 98% 7.6 mph SW12.2 kmh SW 15.9 mph25.6 kmh 29.74 in1007.1 mb 0.00 in0.0 mm 0.00 in0.0 mm 0.17 in4.3 mm
08:30 AM 65.1°F18.4°C 64.9°F18.3°C 99% 4.5 mph SW7.2 kmh SW 12.1 mph19.5 kmh 29.74 in1007.1 mb 0.00 in0.0 mm 0.00 in0.0 mm 0.17 in4.3 mm
08:40 AM 65.7°F18.7°C 65.4°F18.6°C 99% 7.6 mph WSW12.2 kmh WSW 14.5 mph23.3 kmh 29.74 in1007.1 mb 0.00 in0.0 mm 0.00 in0.0 mm 0.17 in4.3 mm
08:50 AM 65.8°F18.8°C 65.6°F18.7°C 99% 9.2 mph WSW14.8 kmh WSW 15.9 mph25.6 kmh 29.75 in1007.5 mb 0.00 in0.0 mm 0.00 in0.0 mm 0.17 in4.3 mm
09:00 AM 66.7°F19.3°C 66.2°F19.0°C 98% 5.4 mph SW8.7 kmh SW 14.5 mph23.3 kmh 29.75 in1007.5 mb 0.00 in0.0 mm 0.00 in0.0 mm 0.17 in4.3 mm
09:10 AM 66.7°F19.3°C 65.6°F18.7°C 96% 8.3 mph SW13.4 kmh SW 15.2 mph24.5 kmh 29.75 in1007.5 mb 0.00 in0.0 mm 0.00 in0.0 mm 0.17 in4.3 mm
09:20 AM 67.3°F19.6°C 66.1°F18.9°C 96% 9.2 mph WSW14.8 kmh WSW 14.5 mph23.3 kmh 29.75 in1007.5 mb 0.00 in0.0 mm 0.00 in0.0 mm 0.17 in4.3 mm
09:30 AM 67.5°F19.7°C 66.3°F19.1°C 96% 11.4 mph SW18.3 kmh SW 14.5 mph23.3 kmh 29.75 in1007.5 mb 0.00 in0.0 mm 0.00 in0.0 mm 0.17 in4.3 mm
09:40 AM 67.3°F19.6°C 65.8°F18.8°C 95% 12.1 mph WSW19.5 kmh WSW 16.8 mph27.0 kmh 29.75 in1007.5 mb 0.00 in0.0 mm 0.00 in0.0 mm 0.17 in4.3 mm
09:50 AM 68.0°F20.0°C 66.2°F19.0°C 94% 6.9 mph WSW11.1 kmh WSW 15.2 mph24.5 kmh 29.75 in1007.5 mb 0.00 in0.0 mm 0.00 in0.0 mm 0.17 in4.3 mm
10:00 AM 68.0°F20.0°C 66.5°F19.2°C 95% 6.9 mph SW11.1 kmh SW 16.8 mph27.0 kmh 29.76 in1007.8 mb 0.00 in0.0 mm 0.00 in0.0 mm 0.17 in4.3 mm
10:10 AM 67.6°F19.8°C 66.8°F19.3°C 97% 10.7 mph WSW17.2 kmh WSW 16.8 mph27.0 kmh 29.75 in1007.5 mb 0.00 in0.0 mm 0.00 in0.0 mm 0.17 in4.3 mm
10:20 AM 67.8°F19.9°C 67.0°F19.4°C 97% 7.6 mph SW12.2 kmh SW 15.9 mph25.6 kmh 29.76 in1007.8 mb 0.00 in0.0 mm 0.00 in0.0 mm 0.17 in4.3 mm
10:30 AM 67.8°F19.9°C 67.0°F19.4°C 97% 9.2 mph WSW14.8 kmh WSW 15.9 mph25.6 kmh 29.77 in1008.1 mb 0.00 in0.0 mm 0.00 in0.0 mm 0.17 in4.3 mm
10:40 AM 67.1°F19.5°C 66.3°F19.1°C 97% 8.3 mph SW13.4 kmh SW 15.9 mph25.6 kmh 29.76 in1007.8 mb 0.00 in0.0 mm 0.00 in0.0 mm 0.17 in4.3 mm
10:50 AM 67.3°F19.6°C 66.7°F19.3°C 98% 5.4 mph WSW8.7 kmh WSW 18.3 mph29.5 kmh 29.76 in1007.8 mb 0.00 in0.0 mm 0.00 in0.0 mm 0.17 in4.3 mm
11:00 AM 67.6°F19.8°C 66.8°F19.3°C 97% 8.3 mph WSW13.4 kmh WSW 14.5 mph23.3 kmh 29.76 in1007.8 mb 0.00 in0.0 mm 0.00 in0.0 mm 0.17 in4.3 mm
11:10 AM 68.0°F20.0°C 66.8°F19.3°C 96% 7.6 mph WSW12.2 kmh WSW 13.6 mph21.9 kmh 29.76 in1007.8 mb 0.00 in0.0 mm 0.00 in0.0 mm 0.17 in4.3 mm
11:20 AM 68.9°F20.5°C 67.4°F19.7°C 95% 7.6 mph WSW12.2 kmh WSW 14.5 mph23.3 kmh 29.76 in1007.8 mb 0.00 in0.0 mm 0.00 in0.0 mm 0.17 in4.3 mm
11:30 AM 69.6°F20.9°C 67.9°F19.9°C 94% 6.9 mph WSW11.1 kmh WSW 13.6 mph21.9 kmh 29.76 in1007.8 mb 0.00 in0.0 mm 0.00 in0.0 mm 0.17 in4.3 mm
11:40 AM 69.8°F21.0°C 67.1°F19.5°C 91% 9.8 mph SW15.8 kmh SW 13.6 mph21.9 kmh 29.76 in1007.8 mb 0.00 in0.0 mm 0.00 in0.0 mm 0.17 in4.3 mm
11:50 AM 70.7°F21.5°C 67.0°F19.4°C 88% 7.6 mph WSW12.2 kmh WSW 15.2 mph24.5 kmh 29.76 in1007.8 mb 0.00 in0.0 mm 0.00 in0.0 mm 0.17 in4.3 mm
12:00 PM 70.5°F21.4°C 66.8°F19.3°C 88% 7.6 mph WSW12.2 kmh WSW 10.7 mph17.2 kmh 29.76 in1007.8 mb 0.00 in0.0 mm 0.00 in0.0 mm 0.17 in4.3 mm
12:10 PM 70.3°F21.3°C 67.0°F19.4°C 89% 8.3 mph W13.4 kmh W 11.4 mph18.3 kmh 29.76 in1007.8 mb 0.00 in0.0 mm 0.00 in0.0 mm 0.17 in4.3 mm
12:20 PM 71.4°F21.9°C 67.0°F19.4°C 86% 4.5 mph WSW7.2 kmh WSW 13.0 mph20.9 kmh 29.76 in1007.8 mb 0.00 in0.0 mm 0.00 in0.0 mm 0.17 in4.3 mm
12:30 PM 71.4°F21.9°C 66.7°F19.3°C 85% 6.0 mph WSW9.7 kmh WSW 11.4 mph18.3 kmh 29.75 in1007.5 mb 0.00 in0.0 mm 0.00 in0.0 mm 0.17 in4.3 mm
12:40 PM 71.1°F21.7°C 66.7°F19.3°C 86% 5.4 mph SW8.7 kmh SW 10.7 mph17.2 kmh 29.75 in1007.5 mb 0.00 in0.0 mm 0.00 in0.0 mm 0.17 in4.3 mm
12:50 PM 71.6°F22.0°C 66.2°F19.0°C 83% 5.4 mph WSW8.7 kmh WSW 10.7 mph17.2 kmh 29.75 in1007.5 mb 0.00 in0.0 mm 0.00 in0.0 mm 0.17 in4.3 mm
01:00 PM 72.7°F22.6°C 66.5°F19.2°C 81% 6.0 mph WSW9.7 kmh WSW 12.1 mph19.5 kmh 29.75 in1007.5 mb 0.00 in0.0 mm 0.00 in0.0 mm 0.17 in4.3 mm
01:10 PM 72.0°F22.2°C 66.6°F19.2°C 83% 7.6 mph WSW12.2 kmh WSW 11.4 mph18.3 kmh 29.74 in1007.1 mb 0.00 in0.0 mm 0.00 in0.0 mm 0.17 in4.3 mm
01:20 PM 72.9°F22.7°C 66.7°F19.3°C 81% 4.5 mph WSW7.2 kmh WSW 9.8 mph15.8 kmh 29.74 in1007.1 mb 0.00 in0.0 mm 0.00 in0.0 mm 0.17 in4.3 mm
01:30 PM 72.9°F22.7°C 67.1°F19.5°C 82% 4.5 mph W7.2 kmh W 12.1 mph19.5 kmh 29.74 in1007.1 mb 0.00 in0.0 mm 0.00 in0.0 mm 0.17 in4.3 mm
01:40 PM 72.9°F22.7°C 67.1°F19.5°C 82% 3.1 mph WSW5.0 kmh WSW 10.7 mph17.2 kmh 29.74 in1007.1 mb 0.00 in0.0 mm 0.00 in0.0 mm 0.17 in4.3 mm
01:50 PM 73.4°F23.0°C 67.6°F19.8°C 82% 6.0 mph WSW9.7 kmh WSW 11.4 mph18.3 kmh 29.73 in1006.8 mb 0.00 in0.0 mm 0.00 in0.0 mm 0.17 in4.3 mm
02:00 PM 72.7°F22.6°C 67.3°F19.6°C 83% 4.5 mph WSW7.2 kmh WSW 10.7 mph17.2 kmh 29.73 in1006.8 mb 0.00 in0.0 mm 0.00 in0.0 mm 0.17 in4.3 mm
02:10 PM 73.8°F23.2°C 68.3°F20.2°C 83% 4.5 mph WSW7.2 kmh WSW 9.2 mph14.8 kmh 29.73 in1006.8 mb 0.00 in0.0 mm 0.00 in0.0 mm 0.17 in4.3 mm
02:20 PM 73.4°F23.0°C 66.5°F19.2°C 79% 5.4 mph WSW8.7 kmh WSW 9.8 mph15.8 kmh 29.73 in1006.8 mb 0.00 in0.0 mm 0.00 in0.0 mm 0.17 in4.3 mm
02:30 PM 74.1°F23.4°C 68.0°F20.0°C 81% 6.0 mph W9.7 kmh W 9.2 mph14.8 kmh 29.73 in1006.8 mb 0.00 in0.0 mm 0.00 in0.0 mm 0.17 in4.3 mm
02:50 PM 75.9°F24.4°C 67.9°F19.9°C 76% 3.8 mph SW6.1 kmh SW 8.3 mph13.4 kmh 29.72 in1006.4 mb 0.00 in0.0 mm 0.00 in0.0 mm 0.17 in4.3 mm
03:00 PM 75.9°F24.4°C 67.1°F19.5°C 74% 4.5 mph N7.2 kmh N 7.6 mph12.2 kmh 29.72 in1006.4 mb 0.00 in0.0 mm 0.00 in0.0 mm 0.17 in4.3 mm
03:10 PM 75.7°F24.3°C 67.3°F19.6°C 75% 6.0 mph WSW9.7 kmh WSW 8.3 mph13.4 kmh 29.72 in1006.4 mb 0.00 in0.0 mm 0.00 in0.0 mm 0.17 in4.3 mm
03:30 PM 74.7°F23.7°C 67.4°F19.7°C 78% 3.8 mph SW6.1 kmh SW 9.2 mph14.8 kmh 29.71 in1006.1 mb 0.00 in0.0 mm 0.00 in0.0 mm 0.17 in4.3 mm
03:40 PM 75.2°F24.0°C 67.9°F19.9°C 78% 5.4 mph NW8.7 kmh NW 7.6 mph12.2 kmh 29.71 in1006.1 mb 0.00 in0.0 mm 0.00 in0.0 mm 0.17 in4.3 mm
04:20 PM 76.1°F24.5°C 68.0°F20.0°C 76% 4.5 mph SW7.2 kmh SW 8.3 mph13.4 kmh 29.71 in1006.1 mb 0.00 in0.0 mm 0.00 in0.0 mm 0.17 in4.3 mm
04:30 PM 75.9°F24.4°C 67.5°F19.7°C 75% 6.0 mph S9.7 kmh S 9.8 mph15.8 kmh 29.71 in1006.1 mb 0.00 in0.0 mm 0.00 in0.0 mm 0.17 in4.3 mm
04:40 PM 77.5°F25.3°C 68.6°F20.3°C 74% 2.2 mph NE3.5 kmh NE 6.9 mph11.1 kmh 29.70 in1005.8 mb 0.00 in0.0 mm 0.00 in0.0 mm 0.17 in4.3 mm
04:50 PM 77.5°F25.3°C 67.0°F19.4°C 70% 2.2 mph W3.5 kmh W 7.6 mph12.2 kmh 29.71 in1006.1 mb 0.00 in0.0 mm 0.00 in0.0 mm 0.17 in4.3 mm
05:00 PM 78.4°F25.8°C 69.1°F20.6°C 73% 3.1 mph NE5.0 kmh NE 6.9 mph11.1 kmh 29.71 in1006.1 mb 0.00 in0.0 mm 0.00 in0.0 mm 0.17 in4.3 mm
05:10 PM 78.1°F25.6°C 67.5°F19.7°C 70% 3.1 mph S5.0 kmh S 6.0 mph9.7 kmh 29.70 in1005.8 mb 0.00 in0.0 mm 0.00 in0.0 mm 0.17 in4.3 mm
05:20 PM 76.3°F24.6°C 67.4°F19.7°C 74% 0.7 mph SW1.1 kmh SW 6.9 mph11.1 kmh 29.70 in1005.8 mb 0.00 in0.0 mm 0.00 in0.0 mm 0.17 in4.3 mm
05:30 PM 75.7°F24.3°C 66.9°F19.4°C 74% 4.5 mph WSW7.2 kmh WSW 7.6 mph12.2 kmh 29.71 in1006.1 mb 0.00 in0.0 mm 0.00 in0.0 mm 0.17 in4.3 mm
05:40 PM 76.3°F24.6°C 67.4°F19.7°C 74% 2.2 mph NE3.5 kmh NE 6.0 mph9.7 kmh 29.71 in1006.1 mb 0.00 in0.0 mm 0.00 in0.0 mm 0.17 in4.3 mm
05:50 PM 76.3°F24.6°C 67.0°F19.4°C 73% 3.8 mph SW6.1 kmh SW 6.0 mph9.7 kmh 29.71 in1006.1 mb 0.00 in0.0 mm 0.00 in0.0 mm 0.17 in4.3 mm
06:00 PM 75.7°F24.3°C 66.5°F19.2°C 73% 0.7 mph NW1.1 kmh NW 5.4 mph8.7 kmh 29.70 in1005.8 mb 0.00 in0.0 mm 0.00 in0.0 mm 0.17 in4.3 mm
06:10 PM 75.7°F24.3°C 67.3°F19.6°C 75% 2.2 mph SW3.5 kmh SW 5.4 mph8.7 kmh 29.71 in1006.1 mb 0.00 in0.0 mm 0.00 in0.0 mm 0.17 in4.3 mm
06:20 PM 72.1°F22.3°C 65.7°F18.7°C 80% 1.6 mph WSW2.6 kmh WSW 5.4 mph8.7 kmh 29.70 in1005.8 mb 0.00 in0.0 mm 0.00 in0.0 mm 0.17 in4.3 mm
06:30 PM 73.4°F23.0°C 66.5°F19.2°C 79% 3.1 mph W5.0 kmh W 4.5 mph7.2 kmh 29.71 in1006.1 mb 0.00 in0.0 mm 0.00 in0.0 mm 0.17 in4.3 mm
06:40 PM 71.2°F21.8°C 65.8°F18.8°C 83% 1.6 mph N2.6 kmh N 5.4 mph8.7 kmh 29.71 in1006.1 mb 0.00 in0.0 mm 0.00 in0.0 mm 0.17 in4.3 mm
06:50 PM 71.8°F22.1°C 65.7°F18.7°C 81% 3.1 mph SW5.0 kmh SW 4.5 mph7.2 kmh 29.72 in1006.4 mb 0.00 in0.0 mm 0.00 in0.0 mm 0.17 in4.3 mm
07:00 PM 70.9°F21.6°C 65.5°F18.6°C 83% 1.6 mph WSW2.6 kmh WSW 3.8 mph6.1 kmh 29.72 in1006.4 mb 0.00 in0.0 mm 0.00 in0.0 mm 0.17 in4.3 mm
07:10 PM 70.7°F21.5°C 65.7°F18.7°C 84% Calm Calm 2.2 mph3.5 kmh 29.71 in1006.1 mb 0.00 in0.0 mm 0.00 in0.0 mm 0.17 in4.3 mm
07:20 PM 70.0°F21.1°C 65.3°F18.5°C 85% Calm Calm -- 29.72 in1006.4 mb 0.00 in0.0 mm 0.00 in0.0 mm 0.17 in4.3 mm
07:30 PM 68.9°F20.5°C 64.9°F18.3°C 87% Calm Calm -- 29.72 in1006.4 mb 0.00 in0.0 mm 0.00 in0.0 mm 0.17 in4.3 mm
07:40 PM 68.2°F20.1°C 64.8°F18.2°C 89% Calm Calm -- 29.72 in1006.4 mb 0.00 in0.0 mm 0.00 in0.0 mm 0.17 in4.3 mm
07:50 PM 67.5°F19.7°C 65.4°F18.6°C 93% Calm Calm -- 29.73 in1006.8 mb 0.00 in0.0 mm 0.00 in0.0 mm 0.17 in4.3 mm
08:00 PM 66.6°F19.2°C 65.1°F18.4°C 95% Calm Calm -- 29.73 in1006.8 mb 0.00 in0.0 mm 0.00 in0.0 mm 0.17 in4.3 mm
08:10 PM 66.0°F18.9°C 64.9°F18.3°C 96% Calm Calm -- 29.73 in1006.8 mb 0.00 in0.0 mm 0.00 in0.0 mm 0.17 in4.3 mm
08:20 PM 65.5°F18.6°C 64.6°F18.1°C 97% Calm Calm -- 29.73 in1006.8 mb 0.00 in0.0 mm 0.00 in0.0 mm 0.17 in4.3 mm
08:30 PM 65.3°F18.5°C 64.5°F18.1°C 97% Calm Calm -- 29.74 in1007.1 mb 0.00 in0.0 mm 0.00 in0.0 mm 0.17 in4.3 mm
08:40 PM 64.8°F18.2°C 64.2°F17.9°C 98% Calm Calm -- 29.74 in1007.1 mb 0.00 in0.0 mm 0.00 in0.0 mm 0.17 in4.3 mm
08:50 PM 64.8°F18.2°C 64.5°F18.1°C 99% Calm Calm -- 29.74 in1007.1 mb 0.00 in0.0 mm 0.00 in0.0 mm 0.17 in4.3 mm
09:00 PM 64.6°F18.1°C 64.3°F17.9°C 99% Calm Calm -- 29.75 in1007.5 mb 0.00 in0.0 mm 0.00 in0.0 mm 0.17 in4.3 mm
09:10 PM 64.2°F17.9°C 63.4°F17.4°C 97% Calm Calm 2.2 mph3.5 kmh 29.75 in1007.5 mb 0.00 in0.0 mm 0.00 in0.0 mm 0.17 in4.3 mm
09:20 PM 63.9°F17.7°C 63.0°F17.2°C 97% Calm Calm -- 29.75 in1007.5 mb 0.00 in0.0 mm 0.00 in0.0 mm 0.17 in4.3 mm
09:30 PM 63.5°F17.5°C 62.7°F17.1°C 97% Calm Calm -- 29.75 in1007.5 mb 0.00 in0.0 mm 0.00 in0.0 mm 0.17 in4.3 mm
09:40 PM 63.5°F17.5°C 62.7°F17.1°C 97% Calm Calm -- 29.76 in1007.8 mb 0.00 in0.0 mm 0.00 in0.0 mm 0.17 in4.3 mm
09:50 PM 63.3°F17.4°C 62.5°F16.9°C 97% Calm Calm -- 29.76 in1007.8 mb 0.00 in0.0 mm 0.00 in0.0 mm 0.17 in4.3 mm
10:00 PM 63.3°F17.4°C 62.5°F16.9°C 97% Calm Calm -- 29.77 in1008.1 mb 0.00 in0.0 mm 0.00 in0.0 mm 0.17 in4.3 mm
10:10 PM 63.1°F17.3°C 62.3°F16.8°C 97% Calm Calm -- 29.76 in1007.8 mb 0.00 in0.0 mm 0.00 in0.0 mm 0.17 in4.3 mm
10:20 PM 63.0°F17.2°C 62.1°F16.7°C 97% Calm Calm -- 29.77 in1008.1 mb 0.00 in0.0 mm 0.00 in0.0 mm 0.17 in4.3 mm
10:30 PM 62.6°F17.0°C 61.8°F16.6°C 97% 0.7 mph NW1.1 kmh NW 3.1 mph5.0 kmh 29.77 in1008.1 mb 0.00 in0.0 mm 0.00 in0.0 mm 0.17 in4.3 mm
10:40 PM 62.4°F16.9°C 61.9°F16.6°C 98% Calm Calm 2.2 mph3.5 kmh 29.77 in1008.1 mb 0.00 in0.0 mm 0.00 in0.0 mm 0.17 in4.3 mm
10:50 PM 62.1°F16.7°C 61.5°F16.4°C 98% Calm Calm 3.1 mph5.0 kmh 29.76 in1007.8 mb 0.00 in0.0 mm 0.00 in0.0 mm 0.17 in4.3 mm
11:00 PM 62.1°F16.7°C 61.5°F16.4°C 98% Calm Calm 3.1 mph5.0 kmh 29.76 in1007.8 mb 0.00 in0.0 mm 0.00 in0.0 mm 0.15 in3.8 mm
11:10 PM 61.9°F16.6°C 61.3°F16.3°C 98% Calm Calm -- 29.76 in1007.8 mb 0.00 in0.0 mm 0.00 in0.0 mm 0.15 in3.8 mm
11:20 PM 61.7°F16.5°C 61.1°F16.2°C 98% Calm Calm -- 29.75 in1007.5 mb 0.00 in0.0 mm 0.00 in0.0 mm 0.15 in3.8 mm
11:30 PM 61.7°F16.5°C 61.1°F16.2°C 98% 1.6 mph NW2.6 kmh NW 3.1 mph5.0 kmh 29.75 in1007.5 mb 0.00 in0.0 mm 0.00 in0.0 mm 0.15 in3.8 mm
11:40 PM 61.7°F16.5°C 61.1°F16.2°C 98% Calm Calm 3.1 mph5.0 kmh 29.76 in1007.8 mb 0.00 in0.0 mm 0.00 in0.0 mm 0.15 in3.8 mm
11:50 PM 61.7°F16.5°C 61.1°F16.2°C 98% Calm Calm 3.1 mph5.0 kmh 29.76 in1007.8 mb 0.00 in0.0 mm 0.00 in0.0 mm 0.15 in3.8 mm